KG-0003 weather

Toktogul Airport
Toktogul, Jalal-Abad Region, Kyrgyzstan

Public forecast

Using degrees Celsius for public forecast. Weather courtesy of forecast.io.

METAR (pilot weather report)

Closest report is Osh Airport, 76.3 nm (141.2 km) S. Retrieved 2019/03/26 10:30 UTC (0 seconds ago):

UCFO 261030Z 36004MPS 310V040 9999 NSC 24/M04 Q1014 R12/09//95 NOSIG

TAF (pilot weather forecast)

Closest forecast is Osh Airport, 76.3 nm (141.2 km) S. Retrieved 2019/03/26 06:00 UTC (4 hours ago):

TAF UCFO 260448Z 2606/2706 27005MPS 9999 NSC TEMPO 2606/2612 32005MPS 2000 BR FU FEW050CB BECMG 2612/2614 17005MPS 2500 BR FU TEMPO 2612/2618 09005MPS 1800 FU SCT030CB